Flight Track Log - Related Links

Times and Time Zones

All times are in EDT time to prevent confusion due to time zone crossing. See the CES2367 flight status page for this flight to view local times or setup timezone preferences in your user account.

Time Position Orientation Groundspeed Altitude Reporting Facility
EDT Latitude Longitude Course Direction KTS MPH feet Rate Location/Type
Thu 07:41:00 PM 34.2401 108.0410 251° West  Level Estimated
Thu 07:42:00 PM 34.2140 107.9524 250° West  Level Estimated
Thu 07:43:00 PM 34.1877 107.8639 250° West  Level Estimated
Thu 07:44:00 PM 34.1614 107.7754 250° West  Level Estimated
Thu 07:45:00 PM 34.1351 107.6870 250° West  Level Estimated
Thu 07:46:00 PM 34.1087 107.5986 250° West  Level Estimated
Thu 07:47:00 PM 34.0822 107.5103 250° West  Level Estimated
Thu 07:48:00 PM 34.0556 107.4221 250° West  Level Estimated
Thu 07:49:00 PM 34.0290 107.3339 250° West  Level Estimated
Thu 07:50:00 PM 34.0024 107.2457 250° West  Level Estimated
Thu 07:51:00 PM 33.9756 107.1577 250° West  Level Estimated
Thu 07:52:00 PM 33.9488 107.0696 250° West  Level Estimated
Thu 07:53:00 PM 33.9220 106.9817 250° West  Level Estimated
Thu 07:54:00 PM 33.8951 106.8937 250° West  Level Estimated
Thu 07:55:00 PM 33.8681 106.8059 250° West  Level Estimated
Thu 07:56:00 PM 33.8410 106.7181 250° West  Level Estimated
Thu 07:57:00 PM 33.8139 106.6303 250° West  Level Estimated
Thu 07:58:00 PM 33.7868 106.5426 250° West  Level Estimated
Thu 07:59:00 PM 33.7595 106.4550 250° West  Level Estimated
Thu 08:00:00 PM 33.7323 106.3674 249° West  Level Estimated
Thu 08:01:00 PM 33.7049 106.2799 249° West  Level Estimated
Thu 08:02:00 PM 33.6775 106.1924 249° West  Level Estimated
Thu 08:03:00 PM 33.6500 106.1050 249° West  Level Estimated
Thu 08:04:00 PM 33.6225 106.0176 249° West  Level Estimated
Thu 08:05:00 PM 33.5949 105.9303 249° West  Level Estimated
Thu 08:06:00 PM 33.5672 105.8431 249° West  Level Estimated
Thu 08:07:00 PM 33.5395 105.7559 249° West  Level Estimated
Thu 08:08:00 PM 33.5117 105.6687 249° West  Level Estimated
Thu 08:09:00 PM 33.4838 105.5817 249° West  Level Estimated
Thu 08:10:00 PM 33.4559 105.4947 249° West  Level Estimated
Thu 08:11:00 PM 33.4280 105.4077 249° West  Level Estimated
Thu 08:12:00 PM 33.3999 105.3208 249° West  Level Estimated
Thu 08:13:00 PM 33.3718 105.2339 249° West  Level Estimated
Thu 08:14:00 PM 33.3437 105.1471 249° West  Level Estimated
Thu 08:15:00 PM 33.3155 105.0604 249° West  Level Estimated
Thu 08:16:00 PM 33.2872 104.9737 249° West  Level Estimated
Thu 08:17:00 PM 33.2589 104.8870 249° West  Level Estimated
Thu 08:18:00 PM 33.2305 104.8005 249° West  Level Estimated
Thu 08:19:00 PM 33.2020 104.7140 249° West  Level Estimated
Thu 08:20:00 PM 33.1735 104.6275 249° West  Level Estimated
Thu 08:21:00 PM 33.1450 104.5411 248° West  Level Estimated
Thu 08:21:02 PM 32.4190 104.4650 248° West 400 460 23,600  Level FlightAware ADS-B
Thu 08:21:39 PM 32.4130 104.3800 265° West 400 460 23,600  Level FlightAware ADS-B
Thu 08:22:11 PM 32.4090 104.3110 266° West 399 459 23,600 -156 Level FlightAware ADS-B
Thu 08:22:56 PM 32.4270 104.2180 283° West 386 444 23,400 -486 Descending FlightAware ADS-B
Thu 08:23:25 PM 32.4500 104.1670 298° West 362 417 23,000 -338 Descending FlightAware ADS-B
Thu 08:24:07 PM 32.4840 104.1060 303° West 361 415 23,000  Level FlightAware ADS-B
Thu 08:24:43 PM 32.5120 104.0550 303° West 361 415 23,000  Level FlightAware ADS-B
Thu 08:25:19 PM 32.5400 104.0040 303° West 361 415 23,000  Level FlightAware ADS-B
Thu 08:25:55 PM 32.5680 103.9530 303° West 361 415 23,000  Level FlightAware ADS-B
Thu 08:26:32 PM 32.5960 103.9010 303° West 361 415 23,000  Level FlightAware ADS-B
Thu 08:27:08 PM 32.6240 103.8500 303° West 361 415 23,000  Level FlightAware ADS-B
Thu 08:29:00 PM 32.7484 103.7610 329° Northwest  Level Estimated
Thu 08:30:00 PM 32.8149 103.7132 329° Northwest  Level Estimated
Thu 08:31:00 PM 32.8570 103.6830 329° Northwest  Level Estimated
Thu 08:32:00 PM 32.8570 103.6830 North  Level Estimated
Thu 08:33:00 PM 32.8570 103.6830 North  Level Estimated
Thu 08:34:00 PM 32.8570 103.6830 North  Level Estimated
Thu 08:35:00 PM 32.8570 103.6830 North  Level Estimated
Thu 08:36:00 PM 32.8570 103.6830 North  Level Estimated
Thu 08:37:00 PM 32.8570 103.6830 North  Level Estimated
Thu 08:38:00 PM 32.8570 103.6830 North  Level Estimated
Thu 08:39:00 PM 32.8570 103.6830 North  Level Estimated
Thu 08:40:00 PM 32.8570 103.6830 North  Level Estimated
Thu 08:41:00 PM 32.8570 103.6830 North  Level Estimated
Thu 08:42:00 PM 32.8570 103.6830 North  Level Estimated
Thu 08:43:00 PM 32.8570 103.6830 North  Level Estimated
Thu 08:44:00 PM 32.8570 103.6830 North  Level Estimated
Thu 08:45:00 PM 32.8570 103.6830 North  Level Estimated
Thu 08:46:00 PM 32.8570 103.6830 North  Level Estimated
Thu 08:47:00 PM 32.8570 103.6830 North  Level Estimated

Login

Don't have an account? Register now (free) for customized features, flight alerts, and more!